createdAt,value
2022-10-15T00:00:11.602Z,52.17
2022-10-15T00:02:38.099Z,54.70
2022-10-15T00:05:04.711Z,57.60
2022-10-15T00:07:31.136Z,56.97
2022-10-15T00:09:57.548Z,57.20
2022-10-15T00:12:24.975Z,58.40
2022-10-15T00:14:51.338Z,53.90
2022-10-15T00:17:17.744Z,54.22
2022-10-15T00:19:44.323Z,58.47
2022-10-15T00:22:10.702Z,57.17
2022-10-15T00:24:37.252Z,63.67
2022-10-15T00:27:03.719Z,59.67
2022-10-15T00:29:30.218Z,64.03
2022-10-15T00:31:56.627Z,62.83
2022-10-15T00:34:23.016Z,67.45
2022-10-15T00:36:50.270Z,66.50
2022-10-15T00:39:17.065Z,62.63
2022-10-15T00:41:44.330Z,58.90
2022-10-15T00:44:26.649Z,59.92
2022-10-15T00:47:01.779Z,57.03
2022-10-15T00:49:34.654Z,62.47
2022-10-15T00:52:05.085Z,60.45
2022-10-15T00:54:34.761Z,60.15
2022-10-15T00:57:01.663Z,59.83
2022-10-15T00:59:29.592Z,52.80
2022-10-15T01:01:56.086Z,58.08
2022-10-15T01:04:23.604Z,58.10
2022-10-15T01:06:50.002Z,61.13
2022-10-15T01:09:16.561Z,68.40
2022-10-15T01:11:49.380Z,71.35
2022-10-15T01:14:31.001Z,69.63
2022-10-15T01:17:20.769Z,73.15
2022-10-15T01:20:15.307Z,77.55
2022-10-15T01:23:33.221Z,79.78
2022-10-15T01:26:30.547Z,79.10
2022-10-15T01:29:22.184Z,73.68
2022-10-15T01:32:02.940Z,78.00
2022-10-15T01:34:56.336Z,74.07
2022-10-15T01:37:42.590Z,80.55
2022-10-15T01:40:15.752Z,82.57
2022-10-15T01:42:58.141Z,80.28
2022-10-15T01:45:39.446Z,81.82
2022-10-15T01:48:09.333Z,80.15
2022-10-15T01:50:38.812Z,79.68
2022-10-15T01:53:07.079Z,85.82
2022-10-15T01:55:34.610Z,82.22
2022-10-15T01:58:01.778Z,86.45
2022-10-15T02:00:28.301Z,79.25
2022-10-15T02:02:59.888Z,76.45
2022-10-15T02:05:30.476Z,75.43
2022-10-15T02:08:29.182Z,63.30
2022-10-15T02:11:15.730Z,62.70
2022-10-15T02:14:06.815Z,62.53
2022-10-15T02:16:54.672Z,59.80
2022-10-15T02:19:31.189Z,58.25
2022-10-15T02:22:17.807Z,61.17
2022-10-15T02:24:55.338Z,61.17
2022-10-15T02:27:22.533Z,64.05
2022-10-15T02:29:50.718Z,65.60
2022-10-15T02:32:17.684Z,68.57
2022-10-15T02:34:45.052Z,68.47
2022-10-15T02:37:21.536Z,70.07
2022-10-15T02:39:47.976Z,68.03
2022-10-15T02:42:16.894Z,60.88
2022-10-15T02:44:43.357Z,64.20
2022-10-15T02:47:10.283Z,62.10
2022-10-15T02:49:37.293Z,63.17
2022-10-15T02:52:04.674Z,62.72
2022-10-15T02:54:31.131Z,55.10
2022-10-15T02:56:57.505Z,64.18
2022-10-15T02:59:23.982Z,71.75
2022-10-15T03:01:50.395Z,70.88
2022-10-15T03:04:17.043Z,73.00
2022-10-15T03:06:43.646Z,66.57
2022-10-15T03:09:10.079Z,76.57
2022-10-15T03:11:38.209Z,65.80
2022-10-15T03:14:04.749Z,91.97
2022-10-15T03:16:31.156Z,73.07
2022-10-15T03:18:57.529Z,82.38
2022-10-15T03:21:23.923Z,87.03
2022-10-15T03:23:50.290Z,101.40
2022-10-15T03:26:16.930Z,103.07
2022-10-15T03:28:44.607Z,106.15
2022-10-15T03:31:11.228Z,112.55
2022-10-15T03:33:37.641Z,103.55
2022-10-15T03:36:04.490Z,112.63
2022-10-15T03:38:30.893Z,110.93
2022-10-15T03:40:57.357Z,121.28
2022-10-15T03:43:25.503Z,114.57
2022-10-15T03:45:52.841Z,117.55
2022-10-15T03:48:19.549Z,116.78
2022-10-15T03:50:46.772Z,112.78
2022-10-15T03:53:13.371Z,104.60
2022-10-15T03:55:39.821Z,95.55
2022-10-15T03:58:06.321Z,105.68
2022-10-15T04:00:32.756Z,111.43
2022-10-15T04:02:59.166Z,111.68
2022-10-15T04:05:25.627Z,108.72
2022-10-15T04:07:52.020Z,109.10
2022-10-15T04:10:18.415Z,114.63
2022-10-15T04:12:44.845Z,102.22
2022-10-15T04:15:11.468Z,109.25
2022-10-15T04:17:37.946Z,104.93
2022-10-15T04:20:05.008Z,101.30
2022-10-15T04:22:31.527Z,117.07
2022-10-15T04:24:57.950Z,111.93
2022-10-15T04:27:24.326Z,113.13
2022-10-15T04:29:50.790Z,102.65
2022-10-15T04:32:17.445Z,110.45
2022-10-15T04:34:45.607Z,100.13
2022-10-15T04:37:11.978Z,98.82
2022-10-15T04:39:38.348Z,102.28
2022-10-15T04:42:04.791Z,114.13
2022-10-15T04:44:31.157Z,115.30
2022-10-15T04:46:58.032Z,116.47
2022-10-15T04:49:24.410Z,126.15
2022-10-15T04:51:50.804Z,118.50
2022-10-15T04:54:17.266Z,123.35
2022-10-15T04:56:43.689Z,125.18
2022-10-15T04:59:10.325Z,126.28
2022-10-15T05:01:36.687Z,127.53
2022-10-15T05:04:03.188Z,126.15
2022-10-15T05:06:29.582Z,129.60
2022-10-15T05:08:55.943Z,129.98
2022-10-15T05:11:25.403Z,125.40
2022-10-15T05:13:52.578Z,112.18
2022-10-15T05:16:25.110Z,134.35
2022-10-15T05:21:19.710Z,108.47
2022-10-15T05:23:47.181Z,115.30
2022-10-15T05:26:15.854Z,111.50
2022-10-15T05:28:42.419Z,107.65
2022-10-15T05:31:13.722Z,104.43
2022-10-15T05:33:44.541Z,101.10
2022-10-15T05:36:18.729Z,95.10
2022-10-15T05:38:50.656Z,96.13
2022-10-15T05:41:17.210Z,99.72
2022-10-15T05:43:46.792Z,95.25
2022-10-15T05:46:13.230Z,95.35
2022-10-15T05:48:39.698Z,84.70
2022-10-15T05:51:10.570Z,91.85
2022-10-15T05:53:37.561Z,86.68
2022-10-15T05:56:05.185Z,94.65
2022-10-15T05:58:34.959Z,74.38
2022-10-15T06:01:05.874Z,85.95
2022-10-15T06:03:32.829Z,82.03
2022-10-15T06:05:59.213Z,94.00
2022-10-15T06:08:25.830Z,100.18
2022-10-15T06:10:52.254Z,96.47
2022-10-15T06:13:18.724Z,104.43
2022-10-15T06:15:45.976Z,107.57
2022-10-15T06:18:15.933Z,106.13
2022-10-15T06:20:43.479Z,107.07
2022-10-15T06:23:11.705Z,113.72
2022-10-15T06:25:38.108Z,114.70
2022-10-15T06:28:06.529Z,110.78
2022-10-15T06:30:33.134Z,113.15
2022-10-15T06:32:59.565Z,120.18
2022-10-15T06:35:27.048Z,119.90
2022-10-15T06:37:53.563Z,123.80
2022-10-15T06:40:20.032Z,138.90
2022-10-15T06:42:46.427Z,135.82
2022-10-15T06:45:14.915Z,156.60
2022-10-15T06:47:43.528Z,151.45
2022-10-15T06:50:10.272Z,146.98
2022-10-15T06:52:37.020Z,153.77
2022-10-15T06:55:04.196Z,163.38
2022-10-15T06:57:30.974Z,158.50
2022-10-15T06:59:57.344Z,163.05
2022-10-15T07:02:24.952Z,159.40
2022-10-15T07:04:51.628Z,160.25
2022-10-15T07:07:18.051Z,158.60
2022-10-15T07:09:46.676Z,155.27
2022-10-15T07:12:13.132Z,158.85
2022-10-15T07:14:42.283Z,159.07
2022-10-15T07:17:09.054Z,153.32
2022-10-15T07:19:35.511Z,153.43
2022-10-15T07:22:02.239Z,161.13
2022-10-15T07:24:28.756Z,152.63
2022-10-15T07:26:55.125Z,159.25
2022-10-15T07:29:21.510Z,162.43
2022-10-15T07:31:47.942Z,163.00
2022-10-15T07:34:14.329Z,161.43
2022-10-15T07:36:40.980Z,156.68
2022-10-15T07:39:07.356Z,152.43
2022-10-15T07:41:33.808Z,151.07
2022-10-15T07:44:00.237Z,157.32
2022-10-15T07:46:26.946Z,159.57
2022-10-15T07:48:53.425Z,148.25
2022-10-15T07:51:19.844Z,169.68
2022-10-15T07:53:47.341Z,157.60
2022-10-15T07:56:15.607Z,164.90
2022-10-15T07:58:42.986Z,159.20
2022-10-15T08:01:10.509Z,155.90
2022-10-15T08:03:37.592Z,157.27
2022-10-15T08:06:05.581Z,172.43
2022-10-15T08:08:32.030Z,158.43
2022-10-15T08:10:58.461Z,162.68
2022-10-15T08:13:24.933Z,162.52
2022-10-15T08:15:53.949Z,168.77
2022-10-15T08:18:22.742Z,159.30
2022-10-15T08:20:49.199Z,164.90
2022-10-15T08:23:16.538Z,164.48
2022-10-15T08:25:43.281Z,160.10
2022-10-15T08:28:10.925Z,153.85
2022-10-15T08:30:38.105Z,153.90
2022-10-15T08:33:04.555Z,151.88
2022-10-15T08:35:35.209Z,150.73
2022-10-15T08:38:02.225Z,142.38
2022-10-15T08:40:29.621Z,135.10
2022-10-15T08:42:56.770Z,127.72
2022-10-15T08:45:42.207Z,125.70
2022-10-15T08:48:14.916Z,116.22
2022-10-15T08:50:54.041Z,113.43
2022-10-15T08:53:22.412Z,109.88
2022-10-15T08:55:50.613Z,102.95
2022-10-15T08:58:23.017Z,103.28
2022-10-15T09:00:53.383Z,95.30
2022-10-15T09:03:28.074Z,99.35
2022-10-15T09:06:13.675Z,96.80
2022-10-15T09:08:43.187Z,97.45
2022-10-15T09:11:18.079Z,91.88
2022-10-15T09:13:45.998Z,96.40
2022-10-15T09:16:18.470Z,90.35
2022-10-15T09:21:13.445Z,88.75
2022-10-15T09:23:41.581Z,76.10
2022-10-15T09:26:24.787Z,72.03
2022-10-15T09:29:14.267Z,77.53
2022-10-15T09:31:49.193Z,69.13
2022-10-15T09:34:31.339Z,68.25
2022-10-15T09:37:01.594Z,64.70
2022-10-15T09:39:50.572Z,59.30
2022-10-15T09:42:30.621Z,56.20
2022-10-15T09:45:05.892Z,53.85
2022-10-15T09:47:34.963Z,52.95
2022-10-15T09:50:02.877Z,47.25
2022-10-15T09:53:04.777Z,47.30
2022-10-15T09:55:41.346Z,44.03
2022-10-15T09:58:28.630Z,33.40
2022-10-15T10:00:59.809Z,32.00
2022-10-15T10:03:28.594Z,30.55
2022-10-15T10:06:03.530Z,29.13
2022-10-15T10:08:35.230Z,29.95
2022-10-15T10:11:03.525Z,31.27
2022-10-15T10:13:49.918Z,27.17
2022-10-15T10:16:18.303Z,25.67
2022-10-15T10:18:51.031Z,26.05
2022-10-15T10:21:24.236Z,25.42
2022-10-15T10:23:50.639Z,25.45
2022-10-15T10:26:17.086Z,26.02
2022-10-15T10:28:49.401Z,27.05
2022-10-15T10:31:16.189Z,24.67
2022-10-15T10:33:42.472Z,25.48
2022-10-15T10:36:30.574Z,25.92
2022-10-15T10:39:02.047Z,28.08
2022-10-15T10:41:47.728Z,30.13
2022-10-15T10:44:27.997Z,28.83
2022-10-15T10:47:15.356Z,27.15
2022-10-15T10:49:46.525Z,29.35
2022-10-15T10:52:21.977Z,26.20
2022-10-15T10:54:53.554Z,23.83
2022-10-15T10:57:47.845Z,23.00
2022-10-15T11:00:21.757Z,21.02
2022-10-15T11:02:49.084Z,20.27
2022-10-15T11:05:17.344Z,21.05
2022-10-15T11:07:54.510Z,21.00
2022-10-15T11:10:29.515Z,19.60
2022-10-15T11:13:04.109Z,21.55
2022-10-15T11:15:41.687Z,17.48
2022-10-15T11:18:23.533Z,17.38
2022-10-15T11:21:07.024Z,16.55
2022-10-15T11:23:36.286Z,16.60
2022-10-15T11:26:21.042Z,18.58
2022-10-15T11:28:59.604Z,14.23
2022-10-15T11:32:02.776Z,13.05
2022-10-15T11:35:40.905Z,18.17
2022-10-15T11:38:46.944Z,15.02
2022-10-15T11:41:29.433Z,17.20
2022-10-15T11:44:17.615Z,20.58
2022-10-15T11:47:20.352Z,11.85
2022-10-15T11:50:08.101Z,11.93
2022-10-15T11:52:51.005Z,11.18
2022-10-15T11:55:45.018Z,11.13
2022-10-15T11:58:17.086Z,12.07
2022-10-15T12:00:48.938Z,10.25
2022-10-15T12:03:20.096Z,10.45
2022-10-15T12:05:52.423Z,10.77
2022-10-15T12:08:19.468Z,10.85
2022-10-15T12:10:54.968Z,10.32
2022-10-15T12:13:39.906Z,8.85
2022-10-15T12:16:24.864Z,8.70
2022-10-15T12:19:05.087Z,8.80
2022-10-15T12:22:00.907Z,7.82
2022-10-15T12:24:39.764Z,7.50
2022-10-15T12:27:26.944Z,6.93
2022-10-15T12:30:00.051Z,6.00
2022-10-15T12:32:36.793Z,6.25
2022-10-15T12:35:05.797Z,5.63
2022-10-15T12:37:34.599Z,5.60
2022-10-15T12:40:25.149Z,4.40
2022-10-15T12:42:55.713Z,3.83
2022-10-15T12:45:24.789Z,4.95
2022-10-15T12:48:12.844Z,4.53
2022-10-15T12:50:39.285Z,3.70
2022-10-15T12:53:24.495Z,4.30
2022-10-15T12:56:17.511Z,21.30
2022-10-15T12:58:51.417Z,5.35
2022-10-15T13:01:20.986Z,3.50
2022-10-15T13:03:50.550Z,2.00
2022-10-15T13:06:19.960Z,2.30
2022-10-15T13:08:52.229Z,2.20
2022-10-15T13:11:25.554Z,2.28
2022-10-15T13:13:57.948Z,16.88
2022-10-15T13:18:54.082Z,2.20
2022-10-15T13:21:20.480Z,2.00
2022-10-15T13:23:48.861Z,2.78
2022-10-15T13:26:27.282Z,1.42
2022-10-15T13:28:57.268Z,5.68
2022-10-15T13:31:36.560Z,2.88
2022-10-15T13:34:11.056Z,4.63
2022-10-15T13:36:38.960Z,1.48
2022-10-15T13:39:07.603Z,3.47
2022-10-15T13:41:39.510Z,1.23
2022-10-15T13:44:06.528Z,3.50
2022-10-15T13:46:37.017Z,5.72
2022-10-15T13:49:10.599Z,1.52
2022-10-15T13:51:49.699Z,2.63
2022-10-15T13:54:19.075Z,4.65
2022-10-15T13:57:03.622Z,2.38
2022-10-15T13:59:30.893Z,5.70
2022-10-15T14:02:01.157Z,5.90
2022-10-15T14:04:29.513Z,5.40
2022-10-15T14:07:04.713Z,1.90
2022-10-15T14:09:32.925Z,3.58
2022-10-15T14:12:03.140Z,2.55
2022-10-15T14:14:36.587Z,2.22
2022-10-15T14:17:06.494Z,4.05
2022-10-15T14:19:35.241Z,3.20
2022-10-15T14:22:01.796Z,1.80
2022-10-15T14:24:37.335Z,1.80
2022-10-15T14:27:14.944Z,2.72
2022-10-15T14:29:51.988Z,10.00
2022-10-15T14:32:47.521Z,4.13
2022-10-15T14:35:43.319Z,2.10
2022-10-15T14:38:09.631Z,2.03
2022-10-15T14:40:36.087Z,2.92
2022-10-15T14:43:20.767Z,1.75
2022-10-15T14:45:50.554Z,2.05
2022-10-15T14:48:25.421Z,2.97
2022-10-15T14:50:52.030Z,1.90
2022-10-15T14:53:24.454Z,5.20
2022-10-15T14:58:20.731Z,1.83
2022-10-15T15:00:49.488Z,4.65
2022-10-15T15:03:27.534Z,2.20
2022-10-15T15:05:55.422Z,2.80
2022-10-15T15:08:22.971Z,4.10
2022-10-15T15:10:50.714Z,2.30
2022-10-15T15:13:21.852Z,3.65
2022-10-15T15:15:48.339Z,3.90
2022-10-15T15:18:15.090Z,2.70
2022-10-15T15:20:43.254Z,4.05
2022-10-15T15:23:15.037Z,4.13
2022-10-15T15:25:42.006Z,3.60
2022-10-15T15:28:17.482Z,3.00
2022-10-15T15:30:45.045Z,3.17
2022-10-15T15:33:13.627Z,2.15
2022-10-15T15:35:51.061Z,2.67
2022-10-15T15:38:18.846Z,3.53
2022-10-15T15:40:46.064Z,2.53
2022-10-15T15:43:13.726Z,2.97
2022-10-15T15:45:40.215Z,2.33
2022-10-15T15:48:06.959Z,3.08
2022-10-15T15:50:33.863Z,1.70
2022-10-15T15:53:00.309Z,3.10
2022-10-15T15:55:27.101Z,3.70
2022-10-15T15:57:53.534Z,1.98
2022-10-15T16:00:20.043Z,3.65
2022-10-15T16:02:46.946Z,3.38
2022-10-15T16:05:15.806Z,3.97
2022-10-15T16:07:43.458Z,2.35
2022-10-15T16:10:11.924Z,2.28
2022-10-15T16:12:39.651Z,3.05
2022-10-15T16:15:09.033Z,2.83
2022-10-15T16:17:38.247Z,1.75
2022-10-15T16:20:05.938Z,2.65
2022-10-15T16:22:32.438Z,1.77
2022-10-15T16:24:58.899Z,2.03
2022-10-15T16:27:26.786Z,1.98
2022-10-15T16:29:53.708Z,2.97
2022-10-15T16:32:20.102Z,2.90
2022-10-15T16:34:46.510Z,1.65
2022-10-15T16:37:12.927Z,1.70
2022-10-15T16:39:39.409Z,3.22
2022-10-15T16:42:05.983Z,2.90
2022-10-15T16:44:32.453Z,4.35
2022-10-15T16:46:58.839Z,1.77
2022-10-15T16:49:25.284Z,4.85
2022-10-15T16:51:51.810Z,3.92
2022-10-15T16:54:18.380Z,3.20
2022-10-15T16:56:47.975Z,2.80
2022-10-15T16:59:18.659Z,2.40
2022-10-15T17:01:45.330Z,2.63
2022-10-15T17:04:11.909Z,2.20
2022-10-15T17:06:38.299Z,2.40
2022-10-15T17:09:04.760Z,1.70
2022-10-15T17:11:34.591Z,2.13
2022-10-15T17:14:04.021Z,1.70
2022-10-15T17:16:37.781Z,1.70
2022-10-15T17:19:04.774Z,1.60
2022-10-15T17:21:31.596Z,2.05
2022-10-15T17:24:00.380Z,1.77
2022-10-15T17:26:39.006Z,1.70
2022-10-15T17:29:06.749Z,3.05
2022-10-15T17:31:33.308Z,2.35
2022-10-15T17:34:02.246Z,2.03
2022-10-15T17:36:29.994Z,3.67
2022-10-15T17:38:57.732Z,1.80
2022-10-15T17:41:25.772Z,2.70
2022-10-15T17:43:52.838Z,2.40
2022-10-15T17:46:22.073Z,3.72
2022-10-15T17:48:48.500Z,4.22
2022-10-15T17:51:16.893Z,2.45
2022-10-15T17:53:43.817Z,4.45
2022-10-15T17:56:29.169Z,3.63
2022-10-15T17:58:56.218Z,2.90
2022-10-15T18:01:39.163Z,4.28
2022-10-15T18:04:12.044Z,3.00
2022-10-15T18:06:38.710Z,2.65
2022-10-15T18:09:05.111Z,3.08
2022-10-15T18:11:33.601Z,3.03
2022-10-15T18:14:00.355Z,3.33
2022-10-15T18:16:26.839Z,3.40
2022-10-15T18:18:53.902Z,2.30
2022-10-15T18:21:22.095Z,3.17
2022-10-15T18:23:48.657Z,3.05
2022-10-15T18:26:19.837Z,3.10
2022-10-15T18:28:47.426Z,3.67
2022-10-15T18:31:15.217Z,2.70
2022-10-15T18:33:43.448Z,3.58
2022-10-15T18:36:14.860Z,6.07
2022-10-15T18:38:43.349Z,3.22
2022-10-15T18:41:18.078Z,3.42
2022-10-15T18:43:49.837Z,3.63
2022-10-15T18:46:16.184Z,3.40
2022-10-15T18:48:42.824Z,4.32
2022-10-15T18:51:09.610Z,3.30
2022-10-15T18:53:37.732Z,4.05
2022-10-15T18:56:05.453Z,4.63
2022-10-15T18:58:32.032Z,3.10
2022-10-15T19:01:09.627Z,3.83
2022-10-15T19:03:36.050Z,3.03
2022-10-15T19:06:02.446Z,3.22
2022-10-15T19:08:30.897Z,4.28
2022-10-15T19:11:08.447Z,3.38
2022-10-15T19:13:36.107Z,4.53
2022-10-15T19:16:04.017Z,2.60
2022-10-15T19:18:31.299Z,2.30
2022-10-15T19:20:57.899Z,2.85
2022-10-15T19:23:24.454Z,3.83
2022-10-15T19:25:50.991Z,3.00
2022-10-15T19:28:17.650Z,3.70
2022-10-15T19:30:44.204Z,6.07
2022-10-15T19:33:10.612Z,2.17
2022-10-15T19:35:41.179Z,2.30
2022-10-15T19:38:07.623Z,3.38
2022-10-15T19:40:40.602Z,2.22
2022-10-15T19:43:07.388Z,2.75
2022-10-15T19:45:44.517Z,2.70
2022-10-15T19:48:12.089Z,3.13
2022-10-15T19:50:40.288Z,2.95
2022-10-15T19:53:07.421Z,2.47
2022-10-15T19:55:33.857Z,2.75
2022-10-15T19:58:00.330Z,1.67
2022-10-15T20:00:26.896Z,1.58
2022-10-15T20:02:53.431Z,3.28
2022-10-15T20:05:19.844Z,5.25
2022-10-15T20:07:46.388Z,1.88
2022-10-15T20:10:12.757Z,2.03
2022-10-15T20:12:39.186Z,2.75
2022-10-15T20:15:06.249Z,2.45
2022-10-15T20:17:32.678Z,2.03
2022-10-15T20:19:59.086Z,1.60
2022-10-15T20:22:25.920Z,3.63
2022-10-15T20:24:52.721Z,1.20
2022-10-15T20:27:19.120Z,1.42
2022-10-15T20:29:45.556Z,1.83
2022-10-15T20:32:30.467Z,1.80
2022-10-15T20:35:00.432Z,1.08
2022-10-15T20:37:26.921Z,0.65
2022-10-15T20:39:53.408Z,1.55
2022-10-15T20:42:19.834Z,1.92
2022-10-15T20:44:46.271Z,1.30
2022-10-15T20:47:13.688Z,2.33
2022-10-15T20:49:45.124Z,2.90
2022-10-15T20:52:12.132Z,2.35
2022-10-15T20:54:38.580Z,2.90
2022-10-15T20:57:05.220Z,2.42
2022-10-15T20:59:31.812Z,3.90
2022-10-15T21:01:58.354Z,3.33
2022-10-15T21:04:24.825Z,1.10
2022-10-15T21:06:51.230Z,2.33
2022-10-15T21:09:17.744Z,1.63
2022-10-15T21:11:45.350Z,1.52
2022-10-15T21:14:12.630Z,2.83
2022-10-15T21:16:40.070Z,3.63
2022-10-15T21:19:06.652Z,2.45
2022-10-15T21:21:33.085Z,2.05
2022-10-15T21:23:59.584Z,0.60
2022-10-15T21:26:26.013Z,4.32
2022-10-15T21:28:56.628Z,2.05
2022-10-15T21:31:23.595Z,2.17
2022-10-15T21:33:50.206Z,2.28
2022-10-15T21:36:24.834Z,2.63
2022-10-15T21:38:59.366Z,2.35
2022-10-15T21:41:27.115Z,1.95
2022-10-15T21:43:53.612Z,3.25
2022-10-15T21:46:20.144Z,3.03
2022-10-15T21:48:46.581Z,1.42
2022-10-15T21:51:21.510Z,1.55
2022-10-15T21:53:47.925Z,2.15
2022-10-15T21:56:14.468Z,1.42
2022-10-15T21:58:41.237Z,2.10
2022-10-15T22:01:14.596Z,1.17
2022-10-15T22:03:44.442Z,1.13
2022-10-15T22:06:11.732Z,3.50
2022-10-15T22:08:38.852Z,1.45
2022-10-15T22:11:13.309Z,2.75
2022-10-15T22:13:40.500Z,2.30
2022-10-15T22:16:07.160Z,1.63
2022-10-15T22:18:33.793Z,1.70
2022-10-15T22:21:10.463Z,2.08
2022-10-15T22:23:36.828Z,1.60
2022-10-15T22:26:03.331Z,1.30
2022-10-15T22:28:29.731Z,1.33
2022-10-15T22:30:56.447Z,3.03
2022-10-15T22:33:22.847Z,3.00
2022-10-15T22:35:49.247Z,1.40
2022-10-15T22:38:15.666Z,1.52
2022-10-15T22:40:42.081Z,3.78
2022-10-15T22:43:08.468Z,2.42
2022-10-15T22:45:34.842Z,3.70
2022-10-15T22:48:01.268Z,2.88
2022-10-15T22:50:27.841Z,1.80
2022-10-15T22:52:54.226Z,2.38
2022-10-15T22:55:20.773Z,2.83
2022-10-15T22:57:47.252Z,3.55
2022-10-15T23:00:14.085Z,4.15
2022-10-15T23:02:40.508Z,1.95
2022-10-15T23:05:07.085Z,2.65
2022-10-15T23:07:33.599Z,4.78
2022-10-15T23:09:59.966Z,2.70
2022-10-15T23:12:26.568Z,3.47
2022-10-15T23:14:53.218Z,4.13
2022-10-15T23:17:19.928Z,3.10
2022-10-15T23:19:46.358Z,3.47
2022-10-15T23:22:12.782Z,4.03
2022-10-15T23:24:39.256Z,4.25
2022-10-15T23:27:05.708Z,3.95
2022-10-15T23:29:32.086Z,5.25
2022-10-15T23:31:58.487Z,5.53
2022-10-15T23:34:26.069Z,4.55
2022-10-15T23:36:52.875Z,5.97
2022-10-15T23:39:22.229Z,6.35
2022-10-15T23:41:48.893Z,7.47
2022-10-15T23:44:15.372Z,10.30
2022-10-15T23:46:42.006Z,7.38
2022-10-15T23:49:08.925Z,8.05
2022-10-15T23:51:35.911Z,6.50
2022-10-15T23:54:03.859Z,9.23
2022-10-15T23:56:30.939Z,7.95
2022-10-15T23:58:59.772Z,5.97
